Date,TemperatureHighF,TemperatureAvgF,TemperatureLowF,DewpointHighF,DewpointAvgF,DewpointLowF,HumidityHigh,HumidityAvg,HumidityLow,PressureMaxIn,PressureMinIn,WindSpeedMaxMPH,WindSpeedAvgMPH,GustSpeedMaxMPH,PrecipitationSumIn
2013-1-1,31.7,29.0,27.3,27.0,24.5,22.6,91,83,72,30.59,30.48,4,0,5,0.01
2013-1-2,31.6,29.9,28.3,26.1,25.0,23.3,87,82,77,30.57,30.44,6,0,6,0.00
2013-1-3,32.1,28.8,24.2,24.8,22.5,18.6,84,77,67,30.44,30.32,4,0,7,0.00
2013-1-4,31.6,25.0,19.4,23.0,20.1,16.3,96,82,68,30.40,30.32,4,0,4,0.02
2013-1-5,30.8,28.6,25.3,28.4,25.9,21.7,94,89,84,30.36,30.20,0,0,1,0.01
2013-1-6,33.9,28.0,20.4,30.9,25.5,18.5,94,90,82,30.21,30.02,4,0,5,0.03
2013-1-7,53.2,40.8,31.1,44.6,35.5,29.3,95,83,62,30.04,29.86,17,2,19,0.17
2013-1-8,48.0,40.4,36.0,41.3,37.9,34.9,96,91,66,30.09,29.82,10,0,13,0.06
2013-1-9,47.4,38.7,30.8,40.2,34.2,28.0,97,85,63,29.87,29.60,16,3,18,0.01
2013-1-10,42.7,35.1,28.0,33.2,27.9,24.6,92,76,54,29.96,29.85,15,2,18,0.01
2013-1-11,39.6,32.0,23.7,28.9,23.4,19.0,89,72,44,30.24,29.95,4,0,6,0.00
2013-1-12,35.4,25.2,19.4,26.6,21.1,17.0,93,85,68,30.34,30.23,3,0,5,0.00
2013-1-13,29.4,23.8,18.1,23.8,20.5,15.7,100,87,78,30.44,30.34,4,0,4,0.00
2013-1-14,45.4,31.6,21.0,31.5,25.6,18.6,92,80,57,30.42,30.26,13,2,14,0.00
2013-1-15,43.3,32.0,25.8,34.9,28.6,24.1,95,88,72,30.56,30.41,3,0,3,0.00
2013-1-16,34.6,32.4,29.9,32.0,29.9,27.1,94,90,86,30.54,30.49,5,0,6,0.00
2013-1-17,31.3,30.5,29.8,27.8,26.8,26.3,91,86,82,30.54,30.37,3,0,4,0.00
2013-1-18,35.5,30.5,26.7,29.2,26.6,24.7,93,85,77,30.37,30.23,4,0,5,0.00
2013-1-19,31.2,30.0,27.2,28.9,27.1,25.5,94,89,85,30.45,30.30,4,0,5,0.00
2013-1-20,30.6,29.1,28.2,28.2,25.9,25.2,92,88,84,30.52,30.42,5,1,6,0.00
2013-1-21,30.5,28.7,27.7,26.8,25.0,24.2,92,86,79,30.42,30.29,5,0,5,0.00
2013-1-22,29.0,27.8,27.1,25.3,24.0,22.9,92,85,80,30.31,30.15,6,1,8,0.00
2013-1-23,31.4,28.5,26.0,26.7,24.3,22.7,91,84,77,30.16,29.97,5,0,6,0.00
2013-1-24,34.6,30.3,24.2,31.8,28.2,21.8,95,92,88,30.20,30.11,3,0,5,0.01
2013-1-25,38.8,35.3,32.4,36.7,33.6,30.9,96,94,88,30.12,29.89,2,0,3,0.07
2013-1-26,43.4,36.9,31.5,40.3,34.9,29.5,97,93,80,29.97,29.86,8,0,10,0.00
2013-1-27,46.0,35.7,29.2,38.8,32.2,27.7,96,87,70,30.01,29.93,13,1,14,0.01
2013-1-28,47.2,39.4,31.9,39.5,35.4,30.1,94,86,62,29.99,29.93,16,1,23,0.11
2013-1-29,49.9,47.1,38.8,41.9,38.5,36.6,93,72,62,30.25,29.95,20,4,25,0.00
2013-1-30,53.8,48.4,41.3,45.0,41.8,37.4,87,78,69,30.27,30.24,15,3,15,0.00
2013-1-31,55.9,47.1,37.4,42.7,39.5,34.6,94,76,54,30.27,30.20,17,2,18,0.00
2013-2-1,55.9,40.5,31.6,41.5,35.4,29.8,96,83,52,30.36,30.23,4,0,4,0.00
2013-2-2,51.7,37.0,27.9,40.7,33.1,26.4,96,87,66,30.40,30.22,4,0,4,0.00
2013-2-3,51.0,40.9,28.4,41.7,35.3,26.9,97,81,68,30.22,30.08,16,3,18,0.01
2013-2-4,52.6,44.5,36.5,40.7,37.5,32.1,88,77,62,30.10,29.86,6,0,6,0.00
2013-2-5,54.2,43.1,35.3,42.6,37.8,32.9,92,82,57,29.94,29.80,14,1,14,0.00
2013-2-6,51.4,42.3,36.3,39.3,36.3,33.5,92,80,58,30.03,29.81,6,0,7,0.00
2013-2-7,49.5,39.4,29.7,37.9,32.6,25.9,94,78,55,30.03,29.81,9,1,11,0.02
2013-2-8,51.4,36.4,25.1,33.9,28.4,22.9,100,75,44,30.14,30.03,16,1,20,0.00
2013-2-9,50.5,39.9,28.9,36.3,31.5,25.4,87,73,56,30.17,30.04,23,3,23,0.00
2013-2-10,53.3,38.7,29.5,37.8,32.1,27.1,93,79,49,30.24,30.13,5,0,8,0.00
2013-2-11,53.6,41.1,29.5,37.7,33.3,26.9,92,75,53,30.23,30.14,19,4,22,0.01
2013-2-12,56.7,47.5,36.8,44.8,40.1,34.1,93,76,51,30.30,30.23,13,2,18,0.00
2013-2-13,57.9,50.2,42.4,43.9,39.9,34.7,84,68,45,30.37,30.23,20,4,20,0.00
2013-2-14,57.9,45.3,36.2,42.6,37.5,32.7,90,75,56,30.43,30.36,13,1,17,0.00
2013-2-15,56.0,40.6,31.0,43.0,36.0,29.2,96,85,60,30.45,30.18,3,0,5,0.00
2013-2-16,55.2,41.1,29.3,42.6,34.7,27.8,96,79,57,30.19,30.05,18,3,19,0.00
2013-2-17,48.5,41.8,31.5,33.6,28.2,25.2,78,59,46,30.15,30.02,19,4,22,0.00
2013-2-18,47.3,37.0,30.5,32.8,29.5,25.4,88,75,55,30.02,29.71,6,0,6,0.00
2013-2-19,51.7,35.2,25.1,34.2,27.7,23.1,94,76,43,29.89,29.67,4,0,5,0.00
2013-2-20,49.6,37.7,25.7,37.6,31.1,23.3,93,79,53,29.98,29.89,15,2,17,0.02
2013-2-21,49.6,41.0,33.0,37.8,33.5,30.9,92,76,53,30.04,29.98,16,3,18,0.00
2013-2-22,47.5,42.2,34.3,43.1,36.7,31.1,91,81,62,30.03,29.70,15,1,15,0.04
2013-2-23,49.8,42.8,36.6,34.3,31.0,28.9,82,63,48,30.29,29.90,23,4,23,0.01
2013-2-24,51.6,40.3,30.8,35.8,31.4,26.0,86,71,50,30.31,29.99,12,1,14,0.00
2013-2-25,50.1,40.3,35.2,39.1,34.4,29.9,95,80,56,30.22,29.91,26,3,26,0.24
2013-2-26,50.5,42.1,34.4,36.2,32.6,28.6,86,70,48,30.29,30.16,9,1,10,0.00
2013-2-27,55.1,41.8,29.6,41.3,34.9,27.8,94,78,52,30.26,30.15,2,0,4,0.00
2013-2-28,55.8,47.5,42.6,50.0,44.2,40.7,96,89,75,30.32,30.15,6,0,6,0.16
2013-3-1,61.5,50.6,42.3,51.7,46.2,40.0,96,85,67,30.34,30.22,12,1,15,0.00
2013-3-2,57.0,46.9,39.5,49.4,42.4,35.6,97,85,69,30.22,29.98,27,2,27,0.02
2013-3-3,46.9,40.1,31.6,35.5,29.9,25.2,78,67,49,30.18,30.07,9,2,15,0.01
2013-3-4,53.2,36.8,24.6,30.6,24.7,20.6,93,66,29,30.22,29.94,10,1,13,0.00
2013-3-5,46.1,37.4,29.4,37.5,30.2,23.1,92,76,52,29.94,29.68,4,0,5,0.06
2013-3-6,40.7,38.6,34.3,38.8,36.8,32.6,95,93,92,29.86,29.53,5,0,5,0.39
2013-3-7,56.8,40.9,29.9,41.8,32.8,28.1,97,77,34,30.01,29.86,7,0,8,0.01
2013-3-8,58.6,41.0,28.0,37.1,31.3,26.2,95,72,36,30.11,29.95,7,0,7,0.00
2013-3-9,62.3,44.8,28.3,38.8,28.8,21.7,94,60,21,30.35,30.11,16,2,18,0.00
2013-3-10,57.9,46.0,35.0,42.9,35.9,26.9,81,68,47,30.37,30.24,21,3,21,0.00
2013-3-11,57.2,51.6,46.0,45.5,43.6,41.6,86,75,59,30.30,30.13,15,2,21,0.00
2013-3-12,62.2,50.9,42.2,50.5,44.4,40.0,94,80,61,30.14,30.01,21,2,21,0.00
2013-3-13,68.9,54.9,44.2,48.0,44.3,40.3,87,69,42,30.12,30.00,8,1,9,0.00
2013-3-14,66.9,52.7,44.6,50.1,44.4,39.7,94,75,45,30.08,29.92,17,2,24,0.00
2013-3-15,62.8,52.9,44.0,48.8,44.6,40.9,90,74,54,30.13,30.03,14,2,15,0.00
2013-3-16,57.5,48.0,39.7,44.7,39.5,33.7,89,73,49,30.03,29.81,26,5,30,0.16
2013-3-17,47.2,42.8,38.2,34.5,31.9,28.6,79,66,52,30.13,29.95,23,4,25,0.01
2013-3-18,54.0,44.4,35.7,35.8,32.5,28.2,84,64,44,30.14,30.07,24,4,27,0.00
2013-3-19,48.5,40.2,30.9,39.1,32.7,27.5,92,76,55,30.14,29.71,4,0,6,0.07
2013-3-20,54.8,43.8,38.3,44.8,38.1,32.3,95,82,52,29.98,29.50,22,3,26,0.40
2013-3-21,47.2,40.6,34.8,36.6,33.0,29.2,87,74,59,30.14,29.98,21,4,23,0.01
2013-3-22,48.4,39.9,29.6,30.6,27.5,25.0,85,63,41,30.27,30.12,23,4,26,0.00
2013-3-23,52.1,38.4,30.9,32.8,26.7,19.5,85,66,28,30.31,30.18,5,0,7,0.00
2013-3-24,53.2,39.3,26.4,32.5,27.1,21.4,92,65,29,30.26,30.08,4,0,7,0.00
2013-3-25,59.4,45.4,31.1,36.5,30.4,25.6,85,59,33,30.08,29.86,7,1,8,0.00
2013-3-26,58.3,47.3,38.5,41.2,35.8,31.2,84,66,37,29.94,29.85,3,0,3,0.00
2013-3-27,65.2,50.9,39.2,49.5,42.6,36.2,92,75,40,29.91,29.81,8,0,9,0.01
2013-3-28,66.1,53.7,44.1,50.1,45.5,41.5,94,76,44,30.01,29.91,8,0,8,0.02
2013-3-29,72.1,57.7,48.6,50.0,46.7,44.0,94,70,37,30.11,30.01,6,0,6,0.01
2013-3-30,74.0,55.4,39.4,49.4,43.4,37.4,95,68,33,30.17,29.96,10,1,13,0.00
2013-3-31,76.6,55.8,38.1,45.5,41.6,36.0,94,64,29,29.98,29.79,5,0,5,0.00
2013-4-1,67.6,58.0,46.9,52.0,47.2,42.9,90,69,52,29.99,29.84,22,5,27,0.00
2013-4-2,67.1,57.9,46.5,49.2,46.4,42.7,88,67,48,30.06,29.98,19,5,24,0.00
2013-4-3,71.3,56.5,41.2,48.9,44.9,38.8,94,68,39,30.06,29.84,5,1,7,0.00
2013-4-4,59.7,55.4,52.0,55.2,49.8,46.5,90,82,64,29.84,29.63,10,0,14,0.11
2013-4-5,65.5,54.4,45.6,51.0,46.2,43.1,94,75,49,29.83,29.74,16,2,18,0.01
2013-4-6,56.6,50.3,44.4,46.8,42.5,38.6,94,75,56,29.88,29.72,23,3,23,0.17
2013-4-7,55.6,47.1,40.9,45.3,40.4,36.5,95,78,53,29.78,29.49,21,4,26,0.32
2013-4-8,58.3,49.2,39.7,41.3,37.2,32.9,85,64,48,30.16,29.78,22,4,25,0.00
2013-4-9,64.5,49.6,34.1,42.3,37.4,31.2,91,65,36,30.26,30.13,11,2,16,0.00
2013-4-10,64.9,52.1,41.8,51.6,41.0,32.7,91,68,44,30.15,29.93,27,5,27,0.01
2013-4-11,58.8,49.1,36.9,39.3,35.9,31.9,86,61,45,30.17,30.05,17,4,21,0.00
2013-4-12,57.5,46.2,32.0,41.0,35.9,29.1,92,69,47,30.06,29.64,23,4,28,0.00
2013-4-13,53.6,46.8,38.0,38.2,32.5,27.7,81,58,38,29.93,29.65,26,9,33,0.02
2013-4-14,56.0,45.2,33.2,36.8,32.9,28.3,96,64,35,29.95,29.78,19,5,20,0.00
2013-4-15,56.2,44.1,35.0,40.1,35.1,31.0,88,72,42,30.05,29.82,13,2,15,0.10
2013-4-16,58.0,44.8,33.1,39.2,32.6,27.1,95,67,33,30.30,30.05,8,1,8,0.01
2013-4-17,62.8,47.1,29.7,36.9,32.0,26.6,92,60,27,30.39,30.27,23,3,23,0.00
2013-4-18,62.3,53.4,45.6,45.2,39.9,36.3,78,60,47,30.33,30.17,16,6,19,0.00
2013-4-19,65.0,54.4,43.3,50.2,44.6,40.3,91,71,49,30.17,29.98,23,4,29,0.01
2013-4-20,60.7,55.0,49.8,44.8,40.9,36.7,78,60,44,30.16,30.09,20,8,23,0.00
2013-4-21,59.6,52.6,45.4,42.8,41.1,38.8,78,65,51,30.19,30.06,21,6,24,0.00
2013-4-22,64.5,50.0,35.5,41.0,32.3,21.6,93,57,21,30.39,30.19,8,1,12,0.00
2013-4-23,69.6,47.7,28.8,33.2,27.4,21.6,88,52,19,30.34,30.05,5,0,8,0.00
2013-4-24,75.8,52.3,30.5,40.1,31.1,25.5,86,51,18,30.26,29.89,10,1,11,0.00
2013-4-25,79.4,61.9,42.6,43.2,39.8,36.0,82,50,25,29.97,29.86,18,3,19,0.00
2013-4-26,83.2,65.0,45.1,49.6,40.5,31.8,88,47,16,30.08,29.97,19,3,23,0.00
2013-4-27,76.4,61.4,45.2,46.4,39.1,29.5,80,48,18,30.09,30.00,24,6,30,0.00
2013-4-28,67.4,59.8,53.1,49.2,43.0,39.0,80,55,36,30.10,29.87,26,6,26,0.00
2013-4-29,59.6,54.8,45.4,45.5,34.8,25.8,72,48,30,30.04,29.82,22,7,28,0.00
2013-4-30,57.6,49.7,40.0,33.2,28.7,25.5,71,45,30,30.31,30.03,19,6,22,0.00
2013-5-1,69.1,49.8,31.5,35.1,30.7,20.6,88,54,17,30.48,30.31,7,1,9,0.00
2013-5-2,77.9,56.7,34.2,46.5,34.0,28.2,85,49,17,30.47,30.12,5,0,7,0.00
2013-5-3,80.0,62.4,43.0,47.1,41.6,37.4,86,52,22,30.21,30.00,6,1,8,0.00
2013-5-4,81.8,63.2,42.5,47.5,38.3,30.4,88,48,17,30.09,29.85,12,2,20,0.00
2013-5-5,84.7,66.0,44.6,46.1,39.8,36.2,76,43,20,29.86,29.64,11,1,13,0.00
2013-5-6,89.4,67.7,45.1,56.8,44.4,36.7,87,50,16,29.75,29.57,6,1,7,0.00
2013-5-7,82.9,75.9,61.2,51.7,50.0,47.9,68,41,32,29.79,29.65,17,6,20,0.00
2013-5-8,81.3,68.5,54.2,53.8,51.6,48.4,84,57,36,29.93,29.79,19,3,19,0.00
2013-5-9,88.8,69.4,50.8,56.0,51.1,46.4,90,57,25,30.00,29.86,15,2,17,0.00
2013-5-10,93.7,72.9,52.2,55.8,48.9,43.0,82,48,18,30.03,29.89,13,2,16,0.00
2013-5-11,90.8,74.5,58.6,56.7,52.2,46.1,76,49,24,30.01,29.83,12,2,14,0.00
2013-5-12,75.7,68.8,59.4,59.0,55.2,51.1,79,62,52,29.95,29.89,22,5,30,0.00
2013-5-13,72.1,61.0,53.2,56.2,50.2,41.5,89,69,38,30.08,29.90,21,4,23,0.01
2013-5-14,69.5,58.3,43.4,43.0,37.0,27.8,83,49,22,30.11,29.95,14,2,16,0.00
2013-5-15,62.7,56.1,46.9,47.6,43.6,35.7,81,63,48,29.99,29.90,16,3,17,0.00
2013-5-16,71.3,59.0,45.4,51.1,46.7,42.7,92,66,42,29.92,29.75,17,2,19,0.00
2013-5-17,68.0,57.7,50.5,49.3,45.7,40.8,94,67,39,29.95,29.83,23,4,23,0.20
2013-5-18,64.1,54.2,43.1,49.3,45.0,40.9,92,72,52,30.14,29.95,16,4,18,0.02
2013-5-19,69.0,59.4,44.9,48.1,44.6,42.1,92,60,40,30.21,30.14,26,6,26,0.00
2013-5-20,81.6,62.0,41.5,47.9,43.8,39.0,92,57,24,30.20,29.73,14,2,15,0.00
2013-5-21,63.4,54.0,44.9,46.7,41.9,36.1,81,64,45,29.82,29.64,20,6,20,0.11
2013-5-22,49.5,46.8,44.5,46.0,41.4,34.5,95,82,61,29.89,29.80,13,1,14,0.23
2013-5-23,58.7,50.7,43.8,47.1,44.1,41.8,95,79,54,29.95,29.88,11,2,12,0.02
2013-5-24,64.1,54.1,46.1,47.5,45.0,42.6,95,73,47,29.96,29.89,14,3,18,0.15
2013-5-25,68.3,56.8,41.7,49.7,44.3,39.3,93,65,42,29.96,29.83,11,2,12,0.00
2013-5-26,68.8,59.5,52.6,54.5,50.1,46.8,94,73,46,29.91,29.83,14,3,20,0.23
2013-5-27,62.5,54.0,47.6,57.1,50.6,43.3,94,88,77,29.89,29.66,6,0,6,0.28
2013-5-28,53.4,52.8,52.1,50.2,49.9,49.3,93,90,87,29.73,29.72,10,1,10,0.00
2013-5-29,66.7,59.9,52.1,50.5,48.0,46.5,93,66,50,29.78,29.66,15,4,24,0.00
2013-5-30,66.8,54.4,48.3,52.5,48.6,42.2,95,83,42,30.12,29.59,16,1,21,0.31
2013-5-31,73.4,59.7,42.7,48.6,44.5,40.3,92,61,34,30.21,30.08,10,2,10,0.00
2013-6-1,78.6,63.4,46.9,52.8,48.3,44.0,91,62,36,30.11,29.88,20,2,20,0.00
2013-6-2,75.1,64.7,50.0,53.7,47.7,44.0,93,58,35,29.91,29.83,20,6,27,0.00
2013-6-3,81.9,66.6,46.8,51.4,46.9,42.3,89,53,27,29.95,29.82,17,3,19,0.00
2013-6-4,87.4,69.0,49.0,57.4,46.9,37.0,86,51,17,30.00,29.86,7,1,11,0.00
2013-6-5,89.4,72.0,50.5,54.8,49.2,44.1,84,49,21,29.94,29.78,17,2,21,0.00
2013-6-6,89.7,75.4,58.1,59.7,52.6,43.8,87,50,23,29.87,29.76,18,3,21,0.00
2013-6-7,82.7,72.9,57.6,53.5,47.3,36.2,69,42,21,29.94,29.83,26,8,29,0.00
2013-6-8,86.7,71.6,50.6,50.5,44.2,30.4,81,42,14,29.97,29.84,23,6,27,0.00
2013-6-9,79.1,68.4,53.8,50.8,45.2,36.2,83,47,22,29.89,29.77,21,6,25,0.00
2013-6-10,76.2,64.9,49.2,46.5,42.8,33.3,78,47,22,29.82,29.68,20,7,21,0.00
2013-6-11,68.1,59.6,52.8,45.6,42.7,39.6,72,54,38,30.00,29.77,20,7,23,0.00
2013-6-12,70.1,59.9,46.5,46.7,43.4,40.5,87,57,36,30.02,29.96,26,6,26,0.00
2013-6-13,68.9,58.4,44.9,50.3,45.6,41.8,90,64,43,30.12,30.02,23,4,25,0.02
2013-6-14,76.0,63.0,46.4,48.6,45.7,42.3,87,56,31,30.13,29.88,12,3,15,0.00
2013-6-15,89.0,68.8,46.3,52.5,46.2,36.9,90,51,17,29.88,29.72,14,2,15,0.00
2013-6-16,85.3,72.1,61.5,56.1,52.0,47.1,74,51,30,29.94,29.81,20,4,21,0.02
2013-6-17,81.7,70.2,58.1,55.0,50.9,47.0,84,53,33,29.94,29.76,17,4,21,0.00
2013-6-18,74.6,65.0,58.5,50.5,46.2,40.0,70,52,31,29.87,29.74,15,4,17,0.00
2013-6-19,69.8,61.7,52.6,48.1,45.0,42.2,74,55,40,29.93,29.78,21,8,23,0.00
2013-6-20,69.9,61.7,52.0,49.8,46.4,43.4,80,58,41,29.99,29.89,18,6,21,0.00
2013-6-21,74.5,64.2,53.3,50.2,47.7,44.1,87,57,36,30.02,29.95,18,5,18,0.01
2013-6-22,84.7,68.6,51.1,55.3,48.2,42.7,82,53,24,30.00,29.73,7,1,9,0.00
2013-6-23,78.7,68.2,61.0,62.9,55.9,49.3,91,67,36,29.74,29.55,4,0,7,0.07
2013-6-24,72.2,63.4,59.7,60.2,54.5,50.5,94,74,50,29.62,29.52,11,2,13,0.04
2013-6-25,70.0,60.4,56.1,60.2,56.4,52.3,95,87,63,29.79,29.61,8,0,9,0.62
2013-6-26,75.1,64.2,55.9,60.4,56.7,53.5,96,79,48,29.96,29.79,12,1,14,0.02
2013-6-27,86.6,72.1,57.4,61.0,58.4,54.5,93,65,39,30.04,29.95,14,2,18,0.00
2013-6-28,96.6,78.8,59.8,65.2,60.4,57.2,93,58,28,30.07,29.84,8,1,10,0.00
2013-6-29,93.4,81.6,68.7,65.8,60.6,52.8,82,53,28,29.90,29.80,16,4,19,0.00
2013-6-30,102.3,82.6,61.3,63.7,58.7,54.2,86,50,21,29.89,29.68,8,1,11,0.00
2013-7-1,103.9,85.1,69.7,67.2,63.4,58.7,79,52,23,29.81,29.71,20,2,20,0.00
2013-7-2,99.8,85.5,70.4,69.6,59.8,46.3,80,46,23,29.87,29.76,18,4,22,0.00
2013-7-3,93.2,79.8,64.8,59.6,48.2,30.0,75,38,13,29.93,29.80,16,5,21,0.00
2013-7-4,83.4,72.4,57.7,52.0,47.3,40.7,64,42,28,29.89,29.77,21,7,26,0.00
2013-7-5,78.4,69.7,61.9,52.1,49.5,47.5,62,49,38,29.85,29.73,22,7,26,0.00
2013-7-6,88.9,71.3,50.8,55.5,50.1,41.4,86,52,20,29.82,29.65,15,2,18,0.00
2013-7-7,87.1,74.2,57.1,58.3,54.2,49.0,88,54,30,29.77,29.65,21,4,23,0.00
2013-7-8,89.7,75.0,57.1,56.4,52.8,47.0,82,49,27,29.89,29.74,19,4,22,0.00
2013-7-9,98.5,77.9,56.8,59.3,52.2,46.0,77,45,17,29.96,29.78,18,2,19,0.00
2013-7-10,89.9,76.4,59.5,58.6,50.4,37.8,83,45,20,29.85,29.71,22,5,26,0.00
2013-7-11,82.4,69.6,52.4,46.9,43.1,36.4,77,41,20,29.86,29.75,21,6,26,0.00
2013-7-12,78.3,66.6,49.2,49.5,42.5,34.1,72,44,21,29.94,29.79,24,5,26,0.00
2013-7-13,87.7,68.6,47.7,50.1,38.8,2.8,84,44,4,30.04,29.88,7,0,7,0.00
2013-7-14,93.1,73.0,49.7,49.7,42.6,31.5,79,39,13,29.99,29.76,16,2,19,0.00
2013-7-15,94.1,74.2,52.2,49.4,43.4,34.0,70,37,16,29.87,29.69,12,1,12,0.00
2013-7-16,93.0,75.3,54.5,56.0,46.6,42.0,73,40,18,29.80,29.66,16,1,16,0.00
2013-7-17,86.5,76.8,64.0,56.2,51.0,35.4,67,43,21,29.99,29.75,16,6,21,0.00
2013-7-18,95.3,75.1,51.6,53.8,45.4,27.2,80,42,9,30.02,29.84,21,3,22,0.00
2013-7-19,97.8,77.5,54.8,57.6,50.1,34.2,76,44,11,29.94,29.75,14,3,19,0.00
2013-7-20,96.7,77.5,57.7,57.4,53.2,46.0,83,48,18,29.85,29.68,23,5,23,0.00
2013-7-21,95.0,76.8,53.8,56.0,51.8,47.9,82,46,22,29.75,29.64,20,4,23,0.00
2013-7-22,95.1,77.2,56.4,56.2,49.9,43.0,75,43,18,29.80,29.71,19,4,19,0.00
2013-7-23,99.0,78.0,54.6,56.9,48.4,41.1,73,41,14,29.88,29.71,15,2,19,0.00
2013-7-24,96.9,79.6,57.1,56.3,47.6,36.1,81,38,15,29.85,29.75,19,4,21,0.00
2013-7-25,98.1,78.9,54.4,52.1,44.5,34.7,64,33,13,29.89,29.79,18,3,19,0.00
2013-7-26,97.6,80.2,54.9,55.3,47.3,39.8,68,35,15,29.93,29.82,17,4,20,0.00
2013-7-27,89.7,89.7,89.7,48.2,48.2,48.2,24,24,24,29.84,29.84,5,5,5,0.00
2013-7-28,89.7,89.7,89.7,48.2,48.2,48.2,24,24,24,29.84,29.84,5,5,5,0.00
2013-7-29,89.7,89.7,89.7,48.2,48.2,48.2,24,24,24,29.84,29.84,5,5,5,0.00
2013-7-30,89.7,89.7,89.7,48.2,48.2,48.2,24,24,24,29.84,29.84,5,5,5,0.00
2013-7-31,89.7,89.7,89.7,48.2,48.2,48.2,24,24,24,29.84,29.84,5,5,5,0.00
2013-8-1,89.7,89.7,89.7,48.2,48.2,48.2,24,24,24,29.84,29.84,5,5,5,0.00
2013-8-2,89.7,89.7,89.7,48.2,48.2,48.2,24,24,24,29.84,29.84,5,5,5,0.00
2013-8-3,89.7,89.7,89.7,48.2,48.2,48.2,24,24,24,29.84,29.84,5,5,5,0.00
2013-8-4,89.7,89.7,89.7,48.2,48.2,48.2,24,24,24,29.84,29.84,5,5,5,0.00
2013-8-5,89.7,89.7,89.7,48.2,48.2,48.2,24,24,24,29.84,29.84,5,5,5,0.00
2013-8-21,90.3,75.3,52.1,54.6,49.3,34.5,88,45,14,29.97,29.80,14,2,19,0.00
2013-8-22,84.7,71.2,54.8,61.5,53.2,45.8,77,54,33,29.87,29.69,9,0,9,12.88
2013-8-23,79.0,72.5,63.9,61.9,56.9,51.1,86,59,41,29.77,29.69,25,5,25,0.01
2013-8-24,80.1,69.3,58.0,57.0,53.0,49.9,86,59,39,29.76,29.68,22,5,29,0.00
2013-8-25,77.9,65.6,58.7,61.9,55.8,51.2,96,73,41,29.82,29.72,12,1,19,0.31
2013-8-26,80.3,66.2,55.7,63.2,56.8,50.9,97,75,46,29.86,29.77,11,2,12,0.02
2013-8-27,88.4,71.1,52.9,59.3,54.4,49.8,92,59,31,29.87,29.62,9,1,11,0.00
2013-8-28,89.3,77.9,67.1,61.4,58.8,56.2,75,53,34,29.76,29.66,20,3,20,0.00
2013-8-29,82.8,76.2,67.6,64.6,59.9,57.4,73,58,47,29.93,29.74,14,4,20,0.01
2013-8-30,83.3,72.4,61.8,61.2,57.6,54.3,88,62,38,30.02,29.89,21,3,21,0.00
2013-8-31,92.8,72.5,55.6,59.0,54.3,50.0,93,59,25,29.93,29.69,10,0,10,0.00
2013-9-1,93.0,75.1,58.0,58.8,54.5,50.2,84,52,25,29.75,29.59,25,3,25,0.00
2013-9-2,88.2,76.0,61.3,58.2,55.4,53.1,77,50,34,29.76,29.67,20,4,21,0.00
2013-9-3,84.1,74.7,61.7,58.0,55.2,53.1,79,52,36,29.84,29.75,23,4,28,0.00
2013-9-4,85.1,72.7,60.7,57.8,55.4,53.2,81,56,35,29.86,29.77,19,3,26,0.00
2013-9-5,81.5,69.9,58.0,60.9,56.9,53.9,87,65,46,29.90,29.70,20,3,25,0.13
2013-9-6,74.3,63.4,55.1,60.6,55.6,52.7,95,78,53,30.01,29.89,21,3,21,0.33
2013-9-7,81.7,65.4,52.2,59.2,54.5,50.2,95,71,36,30.01,29.84,5,0,6,0.00
2013-9-8,87.0,69.0,54.5,61.0,55.5,51.9,93,66,31,29.99,29.83,6,0,6,0.00
2013-9-9,91.5,73.0,56.6,63.0,58.2,53.1,91,64,33,29.89,29.73,9,1,13,0.00
2013-9-10,94.7,74.1,58.6,62.6,56.6,47.8,92,61,21,29.87,29.73,7,0,13,0.00
2013-9-11,97.8,74.4,56.8,63.0,54.6,49.3,87,56,20,29.90,29.75,5,0,6,0.00
2013-9-12,95.1,74.4,57.9,65.2,57.4,52.6,84,60,27,29.85,29.68,5,0,6,0.00
2013-9-13,91.8,75.3,61.6,63.5,59.8,57.4,87,62,34,29.75,29.59,17,2,19,0.00
2013-9-14,74.2,62.6,57.5,61.7,57.0,54.3,91,82,65,29.72,29.66,7,0,7,0.00
2013-9-27,54.8,53.6,53.1,52.2,51.4,51.0,94,92,91,29.90,29.84,0,0,1,0.03
2013-9-28,65.9,56.6,51.2,60.4,53.4,46.1,96,89,68,29.84,29.37,17,1,28,0.43
2013-9-29,57.3,51.3,45.5,53.5,48.6,43.3,98,90,78,29.60,29.26,24,0,24,0.33
2013-9-30,63.2,55.0,46.7,50.9,44.0,38.6,86,67,49,29.90,29.44,27,4,27,0.02
2013-10-1,57.9,49.7,40.1,49.6,45.3,38.1,95,85,57,30.11,29.88,17,1,18,0.24
2013-10-2,59.6,47.2,39.3,46.2,41.8,37.6,96,83,55,30.11,29.94,24,2,24,0.01
2013-10-3,61.7,52.5,40.3,43.3,40.8,37.3,92,67,45,30.24,30.05,15,1,15,0.00
2013-10-5,71.0,50.0,36.2,47.0,40.8,34.6,100,74,30,30.33,30.11,3,0,5,0.00
2013-10-6,70.1,51.3,37.5,50.8,42.0,36.2,96,74,38,30.14,29.85,7,0,7,0.00
2013-10-7,62.8,53.2,45.5,50.8,44.8,41.7,91,74,52,29.98,29.83,18,3,26,0.01
2013-10-8,57.2,50.8,40.8,48.8,43.7,37.6,92,77,63,29.97,29.85,25,2,25,0.02
2013-10-9,60.9,47.6,36.6,46.4,41.0,35.0,95,80,49,30.04,29.86,5,0,5,0.00
2013-10-10,64.3,51.7,38.3,46.2,42.3,36.5,97,73,43,29.96,29.81,23,3,23,0.00
2013-10-11,60.4,49.7,40.5,47.3,42.3,38.6,94,77,50,30.05,29.95,14,1,14,0.00
2013-10-12,57.1,49.9,43.1,48.2,43.9,39.8,95,81,60,30.08,29.94,13,1,13,0.09
2013-10-13,63.9,48.8,41.0,46.5,41.3,37.3,95,78,38,30.23,30.08,7,0,7,0.00
2013-10-14,64.7,46.0,34.6,44.0,38.9,33.3,96,79,41,30.34,30.23,4,0,4,0.00
2013-10-15,65.2,44.9,31.9,42.5,36.4,30.3,95,75,36,30.34,30.09,7,0,7,0.00
2013-10-16,63.5,45.4,33.9,43.7,37.7,32.2,95,77,41,30.12,30.03,6,0,6,0.00
2013-10-17,40.0,40.0,40.0,36.5,36.5,36.5,87,87,87,30.11,30.11,0,0,0,0.00
2013-10-18,66.0,47.7,33.1,44.0,38.4,31.7,96,74,38,30.23,30.07,3,0,6,0.00
2013-10-19,65.7,46.2,32.6,46.5,39.1,31.3,96,79,44,30.11,29.95,3,0,5,0.00
2013-10-20,69.8,48.6,35.7,48.6,41.7,34.4,96,80,39,30.12,29.98,5,0,5,0.01
2013-10-21,71.3,50.6,37.5,49.7,42.9,36.2,96,78,40,30.12,29.99,3,0,3,0.00
2013-10-22,70.7,45.3,36.7,50.0,40.9,35.4,98,86,41,30.11,29.95,3,0,3,0.01
2013-10-23,68.0,49.6,38.0,49.5,43.4,36.7,96,81,48,30.06,29.93,2,0,3,0.00
2013-10-24,68.3,49.3,37.3,50.2,43.5,36.2,100,82,49,30.05,29.93,3,0,3,0.00
2013-10-25,66.2,48.6,36.9,49.4,43.4,35.9,97,84,51,30.16,30.02,4,0,4,0.01
2013-10-26,59.7,47.6,41.4,50.3,44.7,39.9,100,90,69,30.22,30.03,5,0,5,0.01
2013-10-27,59.5,48.5,39.1,47.2,43.9,38.1,100,85,54,30.03,29.70,23,2,23,0.11
2013-10-28,56.3,47.5,33.3,46.4,34.0,26.4,93,62,33,29.89,29.76,12,0,12,0.00
2013-10-29,55.7,37.9,27.5,32.2,28.1,24.9,92,71,31,30.00,29.88,5,0,5,0.00
2013-10-30,60.3,43.4,28.0,39.2,31.8,25.6,92,68,35,30.03,29.97,17,1,17,0.01
2013-10-31,62.5,51.4,42.8,50.0,43.8,37.1,91,75,63,30.16,30.02,19,3,19,0.00
2013-11-1,62.1,49.3,36.4,46.8,42.7,34.8,95,79,54,30.20,29.82,7,0,7,0.01
2013-11-2,56.7,49.1,40.3,47.8,42.4,36.7,94,79,52,29.92,29.60,38,3,38,0.23
2013-11-3,51.5,41.9,34.2,40.9,36.7,32.1,94,83,53,30.02,29.90,12,1,16,0.05
2013-11-4,46.5,41.2,33.7,42.2,38.1,31.2,94,89,81,30.11,30.01,7,0,7,0.04
2013-11-5,49.6,45.3,41.5,46.7,42.7,39.3,95,91,81,30.13,30.02,5,0,5,0.03
2013-11-6,50.4,47.7,44.5,46.9,45.1,42.9,95,91,83,30.25,30.12,5,0,5,0.16
2013-11-7,52.4,47.1,43.4,46.9,43.0,39.9,96,86,69,30.12,29.81,19,1,19,0.10
2013-11-8,54.2,47.5,40.5,45.6,41.7,37.1,94,81,61,30.08,29.95,10,0,10,0.00
2013-11-9,49.9,42.4,36.6,43.0,39.0,34.8,95,88,75,30.09,30.02,3,0,3,0.00
2013-11-10,52.6,44.0,38.9,44.0,40.2,36.8,95,87,69,30.16,30.05,3,0,3,0.00
2013-11-11,50.5,46.1,42.1,44.5,42.5,40.6,95,88,77,30.27,30.14,5,0,5,0.00
2013-11-12,55.2,46.9,40.6,48.7,44.0,39.2,95,90,76,30.31,30.15,6,0,6,0.11
2013-11-13,59.9,46.6,38.0,47.9,40.6,35.3,97,82,51,30.36,30.18,17,2,17,0.01
2013-11-14,53.6,44.8,36.6,41.5,37.9,33.7,94,78,58,30.18,29.94,25,2,25,0.00
2013-11-15,51.2,45.9,38.2,37.8,35.8,34.1,88,68,55,29.95,29.32,30,4,30,0.00
2013-11-16,51.0,45.5,43.4,43.3,37.7,34.8,88,74,66,29.47,29.30,21,2,21,0.04
2013-11-17,44.6,44.6,44.6,36.5,36.5,36.5,73,73,73,29.47,29.47,0,0,0,0.04
2013-11-18,44.6,44.6,44.6,36.5,36.5,36.5,73,73,73,29.47,29.47,0,0,0,0.04
2013-11-19,44.6,44.6,44.6,36.5,36.5,36.5,73,73,73,29.47,29.47,0,0,0,0.04
2013-11-20,44.6,35.8,21.5,36.5,24.0,11.6,90,64,29,30.43,29.47,12,1,17,0.04
2013-11-21,44.6,25.1,17.1,36.5,15.9,12.9,87,69,37,30.68,29.47,7,0,7,0.19
2013-11-22,36.8,25.0,17.2,21.5,17.2,12.5,87,73,51,30.75,30.62,5,0,5,0.00
2013-11-23,39.6,26.4,18.3,23.5,19.1,14.9,89,75,50,30.62,30.34,4,0,4,0.00
2013-11-24,38.4,26.7,19.0,24.3,20.4,15.7,91,78,54,30.37,30.25,5,0,5,0.00
2013-11-25,39.7,28.0,19.7,27.4,22.5,17.2,93,80,55,30.44,30.35,2,0,3,0.00
2013-11-26,37.9,28.4,21.7,29.1,24.3,19.4,92,85,68,30.36,30.17,3,0,3,0.00
2013-11-27,41.0,30.9,25.5,30.2,26.5,23.1,92,84,63,30.17,30.07,5,0,5,0.00
2013-11-28,40.4,29.0,22.6,31.1,25.4,20.8,94,87,66,30.20,30.10,3,0,3,0.01
2013-11-29,35.9,30.2,23.4,32.4,28.0,21.5,95,91,85,30.25,30.17,3,0,3,0.00
2013-11-30,40.8,35.7,30.5,37.0,33.5,29.0,100,92,83,30.29,30.11,4,0,4,0.02
2013-12-1,62.0,49.7,38.8,52.4,45.2,37.0,97,86,62,30.12,29.74,28,4,28,1.07
2013-12-2,50.6,41.0,30.4,46.6,34.7,27.6,93,79,61,29.93,29.70,26,4,26,0.06
2013-12-3,36.8,31.3,22.5,31.0,23.9,16.5,90,75,45,30.24,29.93,5,0,7,0.02
2013-12-4,31.1,21.7,15.7,19.7,14.4,10.1,89,74,50,30.33,30.24,4,0,4,0.00
2013-12-5,25.7,18.1,12.3,16.4,12.0,8.6,88,77,61,30.32,30.21,2,0,4,0.00
2013-12-6,22.1,19.8,14.4,18.5,16.3,10.7,89,86,78,30.26,30.09,5,0,5,0.00
2013-12-7,20.2,13.0,-0.6,17.0,6.0,-4.8,92,74,47,30.43,30.13,6,0,6,0.00
2013-12-8,2.7,-3.0,-4.3,-0.6,-6.8,-8.1,87,83,82,30.49,30.43,1,0,1,0.00